Time;durP1;ratioP1;P1;durP2;ratioP2;P2;SDS_P1;SDS_P2;PMS_P1;PMS_P2;Temp;Humidity;BMP_temperature;BMP_pressure;BME280_temperature;BME280_humidity;BME280_pressure;Samples;Min_cycle;Max_cycle;Signal;HPM_P1;HPM_P2
2023/06/07 00:00:09;;;;;;;8.50;6.32;;;17.80;67.50;;;;;;5020390;28;20033;-81
2023/06/07 00:02:36;;;;;;;8.50;6.75;;;17.80;66.40;;;;;;5007151;28;20099;-81
2023/06/07 00:05:02;;;;;;;10.63;6.15;;;17.80;67.50;;;;;;5023217;28;20037;-81
2023/06/07 00:07:27;;;;;;;12.30;6.13;;;17.80;67.90;;;;;;5022082;28;20421;-81
2023/06/07 00:09:53;;;;;;;11.00;6.35;;;17.70;68.00;;;;;;5008380;28;20030;-80
2023/06/07 00:12:18;;;;;;;11.85;5.43;;;17.60;68.90;;;;;;5025007;28;20116;-81
2023/06/07 00:14:44;;;;;;;13.50;5.72;;;17.70;68.70;;;;;;5023280;28;20029;-81
2023/06/07 00:17:10;;;;;;;13.75;7.57;;;17.60;68.70;;;;;;5019523;28;20393;-81
2023/06/07 00:19:35;;;;;;;9.38;5.80;;;17.60;68.80;;;;;;5007205;28;20067;-81
2023/06/07 00:22:02;;;;;;;9.00;5.32;;;17.60;72.90;;;;;;5022653;28;20041;-81
2023/06/07 00:24:27;;;;;;;12.18;6.05;;;17.60;72.40;;;;;;5006108;28;20497;-81
2023/06/07 00:26:53;;;;;;;9.88;5.80;;;17.60;70.90;;;;;;5023678;28;20049;-80
2023/06/07 00:29:18;;;;;;;9.90;5.63;;;17.70;70.30;;;;;;5003234;28;20128;-80
2023/06/07 00:31:44;;;;;;;15.32;5.60;;;17.70;69.90;;;;;;5005649;28;20124;-81
2023/06/07 00:34:10;;;;;;;13.82;6.70;;;17.70;73.30;;;;;;5006503;28;20037;-80
2023/06/07 00:36:35;;;;;;;11.98;5.90;;;17.60;71.90;;;;;;5005763;28;20041;-81
2023/06/07 00:39:04;;;;;;;13.80;6.10;;;17.70;69.70;;;;;;5005374;28;20037;-81
2023/06/07 00:41:30;;;;;;;12.30;6.28;;;17.70;72.80;;;;;;5023029;28;20037;-81
2023/06/07 00:43:55;;;;;;;12.40;6.03;;;17.70;69.50;;;;;;5022481;28;20378;-80
2023/06/07 00:46:22;;;;;;;9.25;5.97;;;17.70;69.80;;;;;;4987297;28;20038;-80
2023/06/07 00:48:48;;;;;;;11.05;5.07;;;17.70;70.20;;;;;;5019667;28;20034;-80
2023/06/07 00:51:14;;;;;;;10.93;5.70;;;17.70;70.50;;;;;;5021565;28;20109;-81
2023/06/07 00:53:40;;;;;;;10.18;5.40;;;17.60;71.10;;;;;;5006384;28;20116;-81
2023/06/07 00:56:06;;;;;;;13.63;5.78;;;17.70;71.10;;;;;;5022451;28;20038;-81
2023/06/07 00:58:33;;;;;;;9.20;5.40;;;17.70;70.50;;;;;;5002478;28;20092;-80
2023/06/07 01:00:59;;;;;;;9.38;5.15;;;17.60;74.10;;;;;;5005811;28;20121;-80
2023/06/07 01:03:25;;;;;;;10.73;5.47;;;17.80;69.40;;;;;;5023487;28;20112;-80
2023/06/07 01:05:50;;;;;;;11.93;5.43;;;17.80;70.20;;;;;;5003998;28;20441;-80
2023/06/07 01:08:16;;;;;;;10.23;5.97;;;17.70;70.90;;;;;;5019157;28;20573;-80
2023/06/07 01:10:42;;;;;;;10.68;5.65;;;17.70;71.00;;;;;;5020876;28;20123;-81
2023/06/07 01:13:07;;;;;;;11.07;5.78;;;17.80;72.20;;;;;;5020989;28;20044;-80
2023/06/07 01:15:33;;;;;;;12.07;4.70;;;17.80;70.00;;;;;;5022522;28;20065;-83
2023/06/07 01:17:59;;;;;;;10.43;4.97;;;17.80;70.90;;;;;;5021770;28;20393;-80
2023/06/07 01:20:25;;;;;;;9.95;5.05;;;17.80;69.60;;;;;;5005900;28;20029;-81
2023/06/07 01:22:53;;;;;;;10.73;5.13;;;17.80;69.60;;;;;;4990504;28;20437;-81
2023/06/07 01:25:19;;;;;;;11.63;5.45;;;17.80;69.30;;;;;;5022570;28;20519;-80
2023/06/07 01:27:45;;;;;;;9.02;5.13;;;17.80;69.00;;;;;;5007223;28;20042;-81
2023/06/07 01:30:11;;;;;;;9.57;5.40;;;17.90;69.70;;;;;;5006646;28;20034;-80
2023/06/07 01:32:37;;;;;;;9.73;4.70;;;17.80;69.20;;;;;;5022453;28;20029;-80
2023/06/07 01:35:03;;;;;;;11.25;6.03;;;17.80;68.00;;;;;;5018943;28;20116;-80
2023/06/07 01:37:29;;;;;;;9.88;5.40;;;17.70;69.00;;;;;;5004243;28;20044;-80
2023/06/07 01:39:54;;;;;;;12.43;5.70;;;17.60;68.60;;;;;;5006279;28;20087;-80
2023/06/07 01:42:20;;;;;;;8.05;4.32;;;17.60;68.90;;;;;;5001336;28;20129;-79
2023/06/07 01:44:46;;;;;;;11.82;4.70;;;17.50;69.30;;;;;;5024178;28;20075;-80
2023/06/07 01:47:12;;;;;;;8.85;4.80;;;17.70;69.70;;;;;;5021103;28;20029;-80
2023/06/07 01:49:38;;;;;;;9.15;5.05;;;17.60;70.00;;;;;;5019247;28;20080;-80
2023/06/07 01:52:04;;;;;;;10.10;4.80;;;17.60;70.90;;;;;;5001044;28;20029;-80
2023/06/07 01:54:30;;;;;;;13.55;5.22;;;17.50;69.90;;;;;;5022665;28;20142;-80
2023/06/07 01:57:29;;;;;;;7.75;5.05;;;17.60;69.10;;;;;;5022347;28;20124;-79
2023/06/07 02:00:11;;;;;;;13.65;5.20;;;17.60;69.90;;;;;;4987785;28;20404;-80
2023/06/07 02:02:39;;;;;;;11.30;5.15;;;17.60;69.70;;;;;;5023606;28;20030;-80
2023/06/07 02:05:17;;;;;;;7.57;4.30;;;17.60;69.70;;;;;;5023148;28;20393;-80
2023/06/07 02:07:51;;;;;;;9.27;5.05;;;17.60;70.90;;;;;;5022206;28;20026;-80
2023/06/07 02:10:21;;;;;;;6.80;4.53;;;17.60;70.90;;;;;;5006031;28;20124;-80
2023/06/07 02:12:46;;;;;;;14.55;5.40;;;17.60;68.50;;;;;;5007105;28;20030;-80
2023/06/07 02:15:12;;;;;;;10.00;5.25;;;17.70;70.40;;;;;;5002832;28;20107;-80
2023/06/07 02:17:49;;;;;;;9.57;4.90;;;17.60;69.40;;;;;;5010170;28;20080;-80
2023/06/07 02:20:15;;;;;;;7.80;4.88;;;17.60;70.40;;;;;;5028086;28;20144;-81
2023/06/07 02:22:40;;;;;;;8.70;4.90;;;17.60;70.00;;;;;;5026035;28;20108;-80
2023/06/07 02:25:08;;;;;;;10.25;5.05;;;17.60;69.60;;;;;;5010251;28;20091;-80
2023/06/07 02:27:34;;;;;;;11.38;5.07;;;17.50;68.30;;;;;;4992607;28;20044;-80
2023/06/07 02:30:00;;;;;;;6.53;4.45;;;17.50;70.70;;;;;;5025121;28;20104;-80
2023/06/07 02:32:26;;;;;;;9.30;5.45;;;17.50;70.00;;;;;;5009718;28;20029;-80
2023/06/07 02:34:51;;;;;;;11.68;5.25;;;17.60;68.90;;;;;;5006666;28;20030;-79
2023/06/07 02:37:17;;;;;;;9.50;5.28;;;17.50;69.90;;;;;;5024986;28;20025;-80
2023/06/07 02:39:43;;;;;;;9.70;5.03;;;17.50;69.00;;;;;;5006755;28;20034;-78
2023/06/07 02:42:08;;;;;;;13.93;5.35;;;17.50;72.10;;;;;;5010123;28;20041;-81
2023/06/07 02:44:34;;;;;;;7.00;4.25;;;17.50;69.30;;;;;;5004892;28;20033;-81
2023/06/07 02:46:59;;;;;;;10.55;5.60;;;17.50;69.00;;;;;;5026169;28;20033;-81
2023/06/07 02:49:25;;;;;;;11.13;4.57;;;17.50;71.00;;;;;;5009528;28;20258;-81
2023/06/07 02:51:51;;;;;;;9.02;5.43;;;17.40;70.40;;;;;;5009537;28;20022;-80
2023/06/07 02:54:19;;;;;;;10.95;5.00;;;17.50;70.20;;;;;;5010090;28;20429;-80
2023/06/07 02:56:45;;;;;;;10.93;5.45;;;17.40;69.60;;;;;;5009167;28;20389;-80
2023/06/07 02:59:10;;;;;;;9.25;4.65;;;17.40;69.20;;;;;;5005965;28;20029;-80
2023/06/07 03:01:37;;;;;;;9.80;5.50;;;17.30;69.40;;;;;;5024683;28;20156;-80
2023/06/07 03:04:03;;;;;;;13.50;6.18;;;17.30;69.90;;;;;;5022185;28;20485;-80
2023/06/07 03:06:29;;;;;;;9.43;4.72;;;17.20;70.40;;;;;;5040222;28;20038;-80
2023/06/07 03:08:56;;;;;;;11.23;5.03;;;17.30;70.00;;;;;;5008535;28;20033;-80
2023/06/07 03:11:22;;;;;;;10.35;5.85;;;17.30;69.30;;;;;;5021162;28;20527;-80
2023/06/07 03:13:48;;;;;;;12.57;5.82;;;17.20;69.60;;;;;;4990954;28;20065;-80
2023/06/07 03:16:13;;;;;;;10.68;5.20;;;17.20;70.30;;;;;;5001473;28;20083;-80
2023/06/07 03:18:39;;;;;;;13.95;5.93;;;17.20;70.00;;;;;;5000829;28;20557;-80
2023/06/07 03:21:04;;;;;;;7.65;4.90;;;17.20;70.20;;;;;;5021651;28;20029;-79
2023/06/07 03:23:30;;;;;;;11.40;5.68;;;17.20;69.60;;;;;;5008034;28;20034;-80
2023/06/07 03:25:58;;;;;;;10.65;5.75;;;17.20;69.20;;;;;;5007482;28;20036;-79
2023/06/07 03:28:24;;;;;;;10.15;5.03;;;17.10;69.30;;;;;;4998527;28;20087;-79
2023/06/07 03:30:50;;;;;;;13.60;6.03;;;17.00;68.60;;;;;;5006337;28;20029;-79
2023/06/07 03:33:16;;;;;;;9.13;5.70;;;17.10;69.60;;;;;;5022426;28;20648;-79
2023/06/07 03:35:43;;;;;;;10.40;5.75;;;17.10;69.50;;;;;;5020407;28;20037;-80
2023/06/07 03:38:09;;;;;;;10.52;6.20;;;17.00;69.40;;;;;;5006359;28;21411;-80
2023/06/07 03:40:34;;;;;;;10.02;5.35;;;17.10;69.30;;;;;;5020754;28;20045;-80
2023/06/07 03:43:00;;;;;;;12.20;5.57;;;17.20;68.50;;;;;;5023449;28;20087;-79
2023/06/07 03:45:25;;;;;;;9.32;5.38;;;16.90;70.70;;;;;;5007877;28;20430;-79
2023/06/07 03:47:51;;;;;;;8.73;5.80;;;17.00;70.10;;;;;;5023447;28;20026;-79
2023/06/07 03:50:16;;;;;;;11.20;5.80;;;17.00;69.70;;;;;;5024723;28;20029;-79
2023/06/07 03:52:42;;;;;;;11.57;6.30;;;17.00;72.00;;;;;;4989460;28;20037;-79
2023/06/07 03:55:08;;;;;;;12.70;5.55;;;17.00;70.20;;;;;;5007967;28;20030;-80
2023/06/07 03:57:34;;;;;;;12.00;5.80;;;17.00;70.10;;;;;;5004598;28;20502;-80
2023/06/07 04:00:00;;;;;;;12.93;6.35;;;17.00;71.40;;;;;;5002647;28;20029;-80
2023/06/07 04:02:27;;;;;;;13.15;7.20;;;17.00;69.20;;;;;;5002378;28;20065;-80
2023/06/07 04:04:54;;;;;;;12.18;6.97;;;16.90;69.80;;;;;;5022774;28;20105;-80
2023/06/07 04:07:19;;;;;;;9.35;6.18;;;16.90;69.30;;;;;;5007987;28;20030;-80
2023/06/07 04:09:45;;;;;;;10.60;5.85;;;16.90;68.80;;;;;;5003440;28;20029;-80
2023/06/07 04:12:11;;;;;;;12.75;6.50;;;16.90;68.40;;;;;;5004783;28;20030;-80
2023/06/07 04:14:36;;;;;;;14.50;6.80;;;16.80;71.80;;;;;;5007767;28;20029;-80
2023/06/07 04:17:02;;;;;;;13.57;7.57;;;16.70;71.50;;;;;;5020390;28;20038;-80
2023/06/07 04:19:28;;;;;;;11.00;6.30;;;16.70;72.60;;;;;;5022100;28;20045;-80
2023/06/07 04:21:53;;;;;;;11.18;6.63;;;16.60;71.50;;;;;;5006825;28;20029;-79
2023/06/07 04:24:19;;;;;;;11.25;7.30;;;16.60;73.80;;;;;;5023826;28;20037;-80
2023/06/07 04:26:44;;;;;;;11.88;7.45;;;16.50;72.50;;;;;;5006614;28;20140;-83
2023/06/07 04:29:10;;;;;;;8.45;6.70;;;16.40;72.80;;;;;;5005055;28;20037;-82
2023/06/07 04:31:39;;;;;;;10.88;6.85;;;16.40;73.70;;;;;;5022288;28;20386;-79
2023/06/07 04:34:04;;;;;;;11.85;7.07;;;16.30;73.90;;;;;;5022867;28;20508;-81
2023/06/07 04:36:30;;;;;;;10.75;7.35;;;16.10;74.60;;;;;;5022806;28;20034;-80
2023/06/07 04:38:56;;;;;;;17.35;8.15;;;16.20;74.40;;;;;;5021522;28;20033;-80
2023/06/07 04:41:25;;;;;;;15.13;7.35;;;16.10;74.40;;;;;;5006655;28;20135;-79
2023/06/07 04:43:51;;;;;;;12.93;7.22;;;16.10;77.50;;;;;;5004932;28;20124;-79
2023/06/07 04:46:18;;;;;;;20.48;9.32;;;16.10;74.70;;;;;;4986232;28;20124;-82
2023/06/07 04:48:44;;;;;;;21.02;7.93;;;16.00;77.40;;;;;;5006364;28;20112;-80
2023/06/07 04:51:13;;;;;;;12.60;8.52;;;15.90;75.60;;;;;;5004860;28;20116;-80
2023/06/07 04:53:39;;;;;;;14.10;8.57;;;16.00;75.50;;;;;;5003982;28;20048;-82
2023/06/07 04:56:04;;;;;;;14.20;8.77;;;15.90;76.60;;;;;;4998801;28;20030;-81
2023/06/07 04:58:33;;;;;;;15.48;9.02;;;15.80;77.80;;;;;;4986994;28;20544;-81
2023/06/07 05:00:58;;;;;;;16.52;8.60;;;15.80;76.50;;;;;;5021962;28;20048;-81
2023/06/07 05:03:24;;;;;;;17.02;9.80;;;15.80;86.30;;;;;;5005605;28;20587;-80
2023/06/07 05:05:50;;;;;;;18.17;10.50;;;15.70;80.40;;;;;;4988111;28;20030;-80
2023/06/07 05:08:16;;;;;;;13.77;8.93;;;15.80;83.60;;;;;;5019665;28;20091;-81
2023/06/07 05:10:41;;;;;;;15.25;9.60;;;15.80;84.10;;;;;;4990706;28;20477;-81
2023/06/07 05:13:07;;;;;;;16.95;9.68;;;15.60;85.70;;;;;;5005480;28;20089;-81
2023/06/07 05:15:33;;;;;;;18.42;9.75;;;15.60;85.80;;;;;;5021990;28;20053;-81
2023/06/07 05:17:59;;;;;;;22.27;9.77;;;15.50;86.40;;;;;;5020611;28;20033;-81
2023/06/07 05:20:25;;;;;;;16.10;9.50;;;15.50;87.60;;;;;;5003830;28;20065;-80
2023/06/07 05:22:50;;;;;;;15.07;9.60;;;15.40;91.30;;;;;;5020755;28;20086;-81
2023/06/07 05:25:16;;;;;;;20.10;11.40;;;15.40;92.00;;;;;;5006320;28;20057;-80
2023/06/07 05:27:42;;;;;;;19.45;11.38;;;15.40;90.80;;;;;;4987190;28;20029;-80
2023/06/07 05:30:08;;;;;;;34.10;21.35;;;15.40;90.60;;;;;;4999192;28;20195;-77
2023/06/07 05:32:34;;;;;;;30.15;20.20;;;15.40;92.10;;;;;;4986863;28;20038;-76
2023/06/07 05:35:01;;;;;;;34.33;22.08;;;15.40;92.90;;;;;;5016187;28;20436;-79
2023/06/07 05:37:27;;;;;;;28.55;22.05;;;15.30;94.00;;;;;;4986330;28;20442;-79
2023/06/07 05:39:53;;;;;;;28.67;20.27;;;15.30;93.00;;;;;;5004237;28;20065;-79
2023/06/07 05:42:18;;;;;;;32.70;18.17;;;15.40;95.00;;;;;;4989339;28;20077;-78
2023/06/07 05:44:45;;;;;;;27.77;16.85;;;15.40;95.30;;;;;;5003328;28;20445;-77
2023/06/07 05:47:11;;;;;;;21.67;16.63;;;15.30;95.50;;;;;;4989660;28;20477;-76
2023/06/07 05:49:37;;;;;;;21.13;15.50;;;15.40;94.90;;;;;;5003092;28;20041;-76
2023/06/07 05:52:03;;;;;;;25.95;16.65;;;15.40;95.00;;;;;;5006195;28;20029;-76
2023/06/07 05:54:28;;;;;;;27.63;17.70;;;15.50;94.40;;;;;;5024595;28;20052;-76
2023/06/07 05:56:54;;;;;;;29.65;16.75;;;15.50;97.00;;;;;;5020155;28;20405;-77
2023/06/07 05:59:19;;;;;;;25.05;15.65;;;15.40;96.80;;;;;;4991465;28;20094;-76
2023/06/07 06:01:46;;;;;;;22.73;14.35;;;15.50;96.90;;;;;;5009099;28;20057;-76
2023/06/07 06:04:12;;;;;;;17.20;11.57;;;15.50;95.80;;;;;;5007264;28;20955;-76
2023/06/07 06:06:38;;;;;;;18.88;12.90;;;15.50;96.40;;;;;;5007753;28;20129;-78
2023/06/07 06:09:04;;;;;;;18.25;11.15;;;15.50;95.70;;;;;;4995489;28;20029;-76
2023/06/07 06:11:33;;;;;;;17.52;10.57;;;15.50;96.30;;;;;;5005727;28;20519;-76
2023/06/07 06:13:58;;;;;;;20.98;11.63;;;15.40;96.40;;;;;;5005984;28;20026;-78
2023/06/07 06:16:24;;;;;;;19.40;10.75;;;15.40;99.20;;;;;;5006249;28;20091;-78
2023/06/07 06:18:50;;;;;;;19.40;10.02;;;15.50;97.60;;;;;;4990499;28;20060;-77
2023/06/07 06:21:15;;;;;;;15.05;9.88;;;15.60;97.90;;;;;;5022576;28;20068;-78
2023/06/07 06:23:41;;;;;;;18.63;10.40;;;15.50;98.90;;;;;;5022204;28;20477;-76
2023/06/07 06:26:06;;;;;;;20.33;10.43;;;15.50;99.20;;;;;;5003640;28;20113;-78
2023/06/07 06:28:32;;;;;;;17.25;10.40;;;15.50;98.90;;;;;;5024089;28;20037;-76
2023/06/07 06:30:59;;;;;;;18.60;10.30;;;15.60;98.30;;;;;;5024747;28;20033;-77
2023/06/07 06:33:25;;;;;;;15.98;9.93;;;15.50;98.60;;;;;;5008962;28;20090;-76
2023/06/07 06:35:53;;;;;;;14.45;9.27;;;15.60;98.90;;;;;;5024415;28;20656;-80
2023/06/07 06:38:19;;;;;;;15.10;10.02;;;15.60;99.80;;;;;;5002838;28;20045;-80
2023/06/07 06:40:45;;;;;;;14.55;8.90;;;15.60;99.20;;;;;;5022800;28;20030;-80
2023/06/07 06:43:11;;;;;;;14.27;9.25;;;15.60;98.90;;;;;;5023691;28;20033;-79
2023/06/07 06:45:36;;;;;;;16.27;9.48;;;15.70;99.80;;;;;;5025298;28;20036;-81
2023/06/07 06:48:02;;;;;;;23.40;10.93;;;15.70;99.90;;;;;;5018456;28;20453;-77
2023/06/07 06:50:29;;;;;;;14.13;10.15;;;15.70;99.90;;;;;;5007241;28;20061;-77
2023/06/07 06:52:55;;;;;;;15.70;10.02;;;15.70;99.90;;;;;;5003240;28;20032;-77
2023/06/07 06:55:21;;;;;;;19.05;10.20;;;15.70;99.90;;;;;;5004092;28;20418;-77
2023/06/07 06:57:47;;;;;;;15.75;10.38;;;15.80;99.90;;;;;;5016464;28;20021;-80
2023/06/07 07:00:13;;;;;;;16.20;10.65;;;15.80;99.90;;;;;;4991224;28;20472;-79
2023/06/07 07:02:38;;;;;;;17.80;10.35;;;15.80;99.90;;;;;;5022383;28;20061;-80
2023/06/07 07:05:05;;;;;;;18.98;10.90;;;15.80;99.90;;;;;;5019045;28;20481;-81
2023/06/07 07:07:31;;;;;;;15.70;9.60;;;15.90;99.90;;;;;;5000996;28;20030;-78
2023/06/07 07:09:57;;;;;;;19.92;11.20;;;15.90;99.90;;;;;;5024506;28;20056;-79
2023/06/07 07:12:23;;;;;;;17.20;11.23;;;16.00;99.90;;;;;;4998145;28;20030;-79
2023/06/07 07:14:49;;;;;;;24.85;12.20;;;15.90;99.90;;;;;;5002341;28;20018;-80
2023/06/07 07:17:14;;;;;;;18.90;11.07;;;16.00;99.90;;;;;;5004446;28;20117;-80
2023/06/07 07:19:40;;;;;;;17.38;10.95;;;15.90;99.90;;;;;;4991194;28;20112;-80
2023/06/07 07:22:06;;;;;;;21.92;11.57;;;16.00;99.90;;;;;;4989846;28;20049;-80
2023/06/07 07:24:32;;;;;;;12.20;10.25;;;16.10;99.90;;;;;;5003315;28;20037;-81
2023/06/07 07:26:58;;;;;;;19.88;11.35;;;16.10;99.90;;;;;;5022182;28;20124;-81
2023/06/07 07:29:24;;;;;;;17.20;11.32;;;16.10;99.90;;;;;;5024007;28;20129;-81
2023/06/07 07:31:49;;;;;;;20.83;11.15;;;16.10;99.90;;;;;;5024235;28;20061;-81
2023/06/07 07:34:15;;;;;;;20.33;11.38;;;16.10;99.90;;;;;;4991590;28;20040;-80
2023/06/07 07:36:41;;;;;;;20.92;11.77;;;16.10;99.90;;;;;;5023260;28;20033;-80
2023/06/07 07:39:06;;;;;;;22.83;11.65;;;16.00;99.90;;;;;;5022938;28;20037;-80
2023/06/07 07:41:35;;;;;;;18.48;11.52;;;16.00;99.90;;;;;;5022177;28;20037;-80
2023/06/07 07:44:01;;;;;;;14.57;10.88;;;15.90;99.90;;;;;;5002812;28;20079;-79
2023/06/07 07:46:27;;;;;;;17.40;11.50;;;15.90;99.90;;;;;;4986752;28;20045;-80
2023/06/07 07:48:52;;;;;;;18.10;11.50;;;15.90;99.90;;;;;;5023322;28;20080;-80
2023/06/07 07:51:18;;;;;;;29.42;12.73;;;15.90;99.90;;;;;;5021976;28;20048;-81
2023/06/07 07:53:44;;;;;;;21.98;11.93;;;15.80;99.90;;;;;;4987968;28;20037;-79
2023/06/07 07:56:09;;;;;;;17.65;13.25;;;15.90;99.90;;;;;;4987492;28;20096;-80
2023/06/07 07:58:35;;;;;;;24.40;11.70;;;15.80;99.90;;;;;;5006783;28;20060;-80
2023/06/07 08:01:01;;;;;;;23.80;13.63;;;15.80;99.90;;;;;;5005542;28;20374;-79
2023/06/07 08:03:28;;;;;;;20.77;14.30;;;15.80;99.90;;;;;;5002275;28;20035;-80
2023/06/07 08:05:54;;;;;;;26.17;12.80;;;15.80;99.90;;;;;;5001068;28;20034;-79
2023/06/07 08:08:20;;;;;;;27.98;14.13;;;15.70;99.90;;;;;;5020269;28;20408;-80
2023/06/07 08:10:46;;;;;;;25.92;13.73;;;15.60;99.90;;;;;;5017935;28;20063;-81
2023/06/07 08:13:12;;;;;;;30.60;13.95;;;15.70;99.90;;;;;;4986698;28;20029;-80
2023/06/07 08:15:38;;;;;;;21.65;13.73;;;15.70;99.90;;;;;;5009323;28;20042;-81
2023/06/07 08:18:04;;;;;;;24.65;12.82;;;15.70;99.90;;;;;;5008043;28;20156;-81
2023/06/07 08:20:30;;;;;;;20.45;14.25;;;15.80;99.90;;;;;;5021854;28;20050;-81
2023/06/07 08:22:55;;;;;;;18.25;12.75;;;15.70;99.90;;;;;;5004264;28;20044;-81
2023/06/07 08:25:21;;;;;;;27.05;14.77;;;15.70;99.90;;;;;;5022021;28;20486;-80
2023/06/07 08:27:47;;;;;;;23.45;15.63;;;15.80;99.90;;;;;;5000939;28;20531;-80
2023/06/07 08:30:14;;;;;;;19.60;14.43;;;15.80;99.90;;;;;;5022449;28;20067;-80
2023/06/07 08:32:39;;;;;;;25.73;15.77;;;15.80;99.90;;;;;;5007206;28;20401;-80
2023/06/07 08:35:06;;;;;;;29.60;15.45;;;15.80;99.90;;;;;;5021443;28;20129;-79
2023/06/07 08:37:32;;;;;;;26.55;14.90;;;15.80;99.90;;;;;;4988702;28;20029;-80
2023/06/07 08:39:57;;;;;;;32.95;15.68;;;15.80;99.90;;;;;;5000642;28;20079;-80
2023/06/07 08:42:23;;;;;;;23.50;14.40;;;15.80;99.90;;;;;;5022684;28;20041;-82
2023/06/07 08:44:49;;;;;;;25.95;14.93;;;15.90;99.90;;;;;;5006238;28;20021;-80
2023/06/07 08:47:15;;;;;;;30.00;16.52;;;15.80;99.90;;;;;;5000975;28;20681;-83
2023/06/07 08:49:40;;;;;;;29.50;16.25;;;15.80;99.90;;;;;;4989933;28;20044;-83
2023/06/07 08:52:07;;;;;;;22.48;15.50;;;15.90;99.90;;;;;;4987555;28;20398;-82
2023/06/07 08:54:33;;;;;;;34.70;17.17;;;15.90;99.90;;;;;;5002380;28;20448;-82
2023/06/07 08:56:59;;;;;;;24.55;16.25;;;15.90;99.90;;;;;;4999999;28;20038;-82
2023/06/07 08:59:25;;;;;;;26.95;17.13;;;16.00;99.90;;;;;;5005417;28;20033;-80
2023/06/07 09:01:52;;;;;;;26.00;16.55;;;16.10;99.90;;;;;;5023054;28;20377;-81
2023/06/07 09:04:18;;;;;;;25.17;17.25;;;16.20;99.90;;;;;;5002651;28;20037;-81
2023/06/07 09:06:43;;;;;;;26.33;17.30;;;16.30;99.90;;;;;;5024351;28;20100;-80
2023/06/07 09:09:09;;;;;;;21.50;15.32;;;16.40;99.90;;;;;;4986955;28;20026;-81
2023/06/07 09:11:35;;;;;;;28.65;17.52;;;16.40;99.90;;;;;;4988829;28;20112;-81
2023/06/07 09:14:00;;;;;;;34.47;19.02;;;16.40;99.90;;;;;;5005068;28;20033;-80
2023/06/07 09:16:26;;;;;;;23.50;15.95;;;16.40;99.90;;;;;;5003276;28;20450;-80
2023/06/07 09:18:55;;;;;;;28.60;18.58;;;16.40;99.90;;;;;;5004688;28;20543;-81
2023/06/07 09:21:26;;;;;;;33.88;19.13;;;16.40;99.90;;;;;;4988640;28;20033;-81
2023/06/07 09:23:51;;;;;;;28.90;19.40;;;16.40;99.90;;;;;;5000863;28;20026;-79
2023/06/07 09:26:17;;;;;;;47.03;19.60;;;16.50;99.90;;;;;;5006646;28;20030;-79
2023/06/07 09:28:45;;;;;;;36.03;20.27;;;16.50;99.90;;;;;;5023322;28;20512;-81
2023/06/07 09:31:11;;;;;;;36.47;20.02;;;16.50;99.90;;;;;;4984501;28;20033;-80
2023/06/07 09:33:37;;;;;;;32.90;20.40;;;16.50;99.90;;;;;;5007587;28;20041;-80
2023/06/07 09:36:06;;;;;;;32.97;21.23;;;16.60;99.90;;;;;;5021599;28;20079;-80
2023/06/07 09:38:33;;;;;;;35.33;23.70;;;16.60;99.90;;;;;;5023911;28;20494;-80
2023/06/07 09:40:59;;;;;;;31.85;23.65;;;16.80;99.90;;;;;;5025756;28;20045;-81
2023/06/07 09:43:25;;;;;;;32.90;22.48;;;16.90;99.90;;;;;;5004877;28;20116;-81
2023/06/07 09:45:54;;;;;;;30.20;22.17;;;17.10;99.90;;;;;;4992206;28;20037;-81
2023/06/07 09:48:20;;;;;;;33.67;23.00;;;17.10;99.90;;;;;;5013003;28;20041;-81
2023/06/07 09:50:58;;;;;;;29.42;20.90;;;17.20;99.90;;;;;;4994742;28;20043;-82
2023/06/07 09:53:24;;;;;;;30.75;20.35;;;17.30;99.90;;;;;;4992867;28;20111;-82
2023/06/07 09:55:49;;;;;;;34.47;22.70;;;17.40;99.90;;;;;;4993219;28;20057;-80
2023/06/07 09:58:22;;;;;;;33.17;23.20;;;17.60;99.90;;;;;;5004950;28;21561;-81
2023/06/07 10:00:48;;;;;;;26.88;21.60;;;17.90;99.90;;;;;;5006678;28;20044;-79
2023/06/07 10:03:16;;;;;;;34.58;21.73;;;18.10;99.90;;;;;;4299768;28;10000195;-79
2023/06/07 10:05:43;;;;;;;33.10;20.00;;;18.10;99.90;;;;;;5003874;28;20408;-80
2023/06/07 10:08:09;;;;;;;26.02;18.63;;;18.20;99.90;;;;;;5003105;28;20029;-80
2023/06/07 10:10:35;;;;;;;27.10;19.50;;;18.30;99.90;;;;;;5006643;28;20033;-80
2023/06/07 10:13:03;;;;;;;29.88;19.80;;;18.30;99.90;;;;;;5008010;28;20614;-78
2023/06/07 10:15:29;;;;;;;25.17;18.42;;;18.40;99.90;;;;;;5006012;28;20402;-78
2023/06/07 10:18:11;;;;;;;29.80;19.08;;;18.50;99.90;;;;;;4990578;28;20018;-78
2023/06/07 10:20:44;;;;;;;29.38;20.40;;;18.60;99.90;;;;;;5021609;28;20037;-79
2023/06/07 10:23:16;;;;;;;30.90;21.42;;;18.60;99.90;;;;;;5019239;28;20037;-80
2023/06/07 10:25:46;;;;;;;27.60;19.65;;;18.70;99.90;;;;;;5004108;28;20308;-82
2023/06/07 10:28:16;;;;;;;26.13;18.95;;;18.70;99.90;;;;;;5010017;28;20033;-81
2023/06/07 10:30:53;;;;;;;30.13;20.80;;;18.80;99.90;;;;;;5005798;28;20042;-78
2023/06/07 10:33:19;;;;;;;28.27;20.23;;;18.90;99.90;;;;;;5007344;28;20076;-78
2023/06/07 10:35:45;;;;;;;28.83;19.70;;;18.90;99.90;;;;;;5001595;28;20065;-80
2023/06/07 10:38:12;;;;;;;31.50;23.88;;;19.00;99.90;;;;;;4992862;28;20030;-80
2023/06/07 10:40:38;;;;;;;32.53;23.45;;;19.00;99.90;;;;;;4991182;28;20034;-80
2023/06/07 10:43:04;;;;;;;30.08;23.15;;;19.10;99.90;;;;;;4989920;28;20022;-80
2023/06/07 10:45:30;;;;;;;27.08;20.60;;;19.20;99.90;;;;;;5009326;28;20449;-79
2023/06/07 10:47:55;;;;;;;29.58;18.90;;;19.20;99.90;;;;;;4989950;28;20025;-79
2023/06/07 10:50:27;;;;;;;24.20;17.55;;;19.30;99.90;;;;;;5006408;28;20037;-78
2023/06/07 10:52:59;;;;;;;27.20;19.08;;;19.40;99.90;;;;;;5025507;28;20529;-79
2023/06/07 10:55:26;;;;;;;24.33;17.70;;;19.60;99.90;;;;;;4985785;28;20424;-78
2023/06/07 10:57:52;;;;;;;25.00;17.58;;;19.80;99.90;;;;;;5023151;28;20563;-79
2023/06/07 11:00:31;;;;;;;22.50;16.55;;;20.20;99.90;;;;;;5004035;28;20034;-79
2023/06/07 11:03:06;;;;;;;25.95;18.67;;;20.50;99.90;;;;;;5023671;28;20034;-80
2023/06/07 11:06:05;;;;;;;23.25;16.92;;;20.70;99.90;;;;;;5025887;28;20029;-80
2023/06/07 11:08:33;;;;;;;27.55;17.85;;;21.00;99.90;;;;;;5024363;28;20072;-80
2023/06/07 11:11:00;;;;;;;26.17;17.02;;;21.20;99.90;;;;;;4991005;28;20109;-79
2023/06/07 11:13:38;;;;;;;24.85;17.65;;;21.60;99.90;;;;;;4991012;28;20501;-79
2023/06/07 11:16:22;;;;;;;26.50;16.55;;;21.90;99.90;;;;;;5021331;28;20029;-80
2023/06/07 11:18:55;;;;;;;25.30;17.50;;;22.30;99.90;;;;;;5037929;28;20042;-80
2023/06/07 11:21:21;;;;;;;23.63;18.73;;;22.70;99.90;;;;;;5024300;28;20045;-80
2023/06/07 11:24:11;;;;;;;24.17;16.85;;;23.00;99.90;;;;;;5005689;28;20060;-79
2023/06/07 11:26:36;;;;;;;24.80;17.83;;;23.30;99.90;;;;;;5007762;28;20490;-80
2023/06/07 11:29:04;;;;;;;22.83;17.02;;;23.80;99.90;;;;;;5024385;28;20056;-80
2023/06/07 11:31:29;;;;;;;22.10;17.33;;;24.10;99.90;;;;;;4991530;28;20037;-80
2023/06/07 11:33:55;;;;;;;20.70;16.73;;;24.50;99.90;;;;;;5006391;28;20477;-80
2023/06/07 11:36:21;;;;;;;26.95;17.27;;;24.70;99.90;;;;;;5006678;28;20064;-80
2023/06/07 11:38:50;;;;;;;22.13;16.52;;;24.90;99.90;;;;;;4989718;28;20032;-79
2023/06/07 11:41:16;;;;;;;22.33;13.93;;;25.00;99.90;;;;;;5006670;28;20037;-80
2023/06/07 11:43:41;;;;;;;20.95;16.90;;;25.40;99.90;;;;;;5004398;28;20079;-79
2023/06/07 11:46:07;;;;;;;24.77;17.35;;;25.70;99.90;;;;;;5022581;28;20029;-80
2023/06/07 11:48:32;;;;;;;22.45;16.02;;;25.90;99.90;;;;;;4988718;28;20113;-81
2023/06/07 11:50:59;;;;;;;25.27;16.20;;;26.00;99.90;;;;;;5022631;28;20057;-81
2023/06/07 11:53:28;;;;;;;22.15;16.25;;;26.20;99.90;;;;;;4985295;28;20037;-81
2023/06/07 11:55:55;;;;;;;23.35;14.60;;;26.30;99.90;;;;;;5006062;28;20033;-81
2023/06/07 11:58:21;;;;;;;19.63;15.35;;;26.30;99.90;;;;;;5021045;28;20029;-81
2023/06/07 12:00:47;;;;;;;24.25;17.85;;;26.50;99.90;;;;;;5004346;28;20383;-80
2023/06/07 12:03:16;;;;;;;21.90;16.73;;;26.50;99.90;;;;;;5006129;28;20025;-81
2023/06/07 12:05:41;;;;;;;20.65;15.82;;;26.40;99.90;;;;;;5017018;28;20036;-80
2023/06/07 12:08:12;;;;;;;18.30;14.75;;;26.60;99.90;;;;;;4987725;28;20029;-80
2023/06/07 12:10:37;;;;;;;24.55;15.35;;;26.80;99.90;;;;;;5006238;28;20163;-80
2023/06/07 12:13:14;;;;;;;18.05;15.30;;;26.80;99.90;;;;;;5022216;28;20548;-81
2023/06/07 12:15:47;;;;;;;24.10;17.23;;;26.80;99.90;;;;;;5002326;28;20120;-80
2023/06/07 12:18:17;;;;;;;22.15;17.25;;;27.00;99.90;;;;;;4990664;28;20482;-80
2023/06/07 12:20:44;;;;;;;22.30;15.88;;;27.30;99.80;;;;;;5002587;28;20056;-79
2023/06/07 12:23:13;;;;;;;19.25;15.27;;;27.50;98.20;;;;;;4988982;28;20037;-80
2023/06/07 12:25:40;;;;;;;22.35;16.30;;;27.70;98.10;;;;;;4987037;28;20033;-80
2023/06/07 12:28:06;;;;;;;17.75;14.73;;;27.90;97.50;;;;;;5002423;28;20029;-79
2023/06/07 12:30:33;;;;;;;19.65;14.98;;;28.00;95.40;;;;;;5006414;28;20489;-79